createdAt,value
2023-06-07T00:00:06.893Z,53856.97
2023-06-07T00:02:44.481Z,53924.56
2023-06-07T00:05:14.900Z,53904.69
2023-06-07T00:07:43.595Z,53934.50
2023-06-07T00:10:12.940Z,53988.19
2023-06-07T00:12:42.899Z,53966.34
2023-06-07T00:15:14.346Z,54024.00
2023-06-07T00:17:44.371Z,54016.03
2023-06-07T00:20:14.298Z,54027.97
2023-06-07T00:22:43.391Z,54069.72
2023-06-07T00:25:12.276Z,54045.88
2023-06-07T00:27:40.970Z,54103.53
2023-06-07T00:30:10.889Z,54171.13
2023-06-07T00:32:40.770Z,54159.19
2023-06-07T00:35:10.362Z,54195.00
2023-06-07T00:37:38.855Z,54234.75
2023-06-07T00:40:08.508Z,54258.63
2023-06-07T00:42:37.099Z,54294.41
2023-06-07T00:45:06.287Z,54312.31
2023-06-07T00:47:35.425Z,54377.94
2023-06-07T00:50:05.584Z,54449.53
2023-06-07T00:52:36.025Z,54548.97
2023-06-07T00:55:08.101Z,54497.25
2023-06-07T00:57:36.778Z,54636.47
2023-06-07T01:00:07.818Z,54638.44
2023-06-07T01:02:36.548Z,54686.19
2023-06-07T01:05:07.990Z,54698.13
2023-06-07T01:07:36.559Z,54779.66
2023-06-07T01:10:07.295Z,54799.53
2023-06-07T01:12:37.601Z,54883.06
2023-06-07T01:15:07.378Z,54962.63
2023-06-07T01:17:42.490Z,54990.47
2023-06-07T01:20:14.906Z,55097.88
2023-06-07T01:22:47.206Z,55185.41
2023-06-07T01:25:17.354Z,55221.19
2023-06-07T01:27:48.194Z,55523.56
2023-06-07T01:30:17.643Z,55543.44
2023-06-07T01:32:47.797Z,55543.44
2023-06-07T01:35:16.887Z,55599.16
2023-06-07T01:37:48.705Z,56006.97
2023-06-07T01:40:18.808Z,56016.94
2023-06-07T01:42:48.225Z,56223.84
2023-06-07T01:45:17.141Z,56072.63
2023-06-07T01:47:46.213Z,56217.88
2023-06-07T01:50:22.600Z,56526.28
2023-06-07T01:52:51.299Z,57013.81
2023-06-07T01:55:22.436Z,57214.84
2023-06-07T01:57:59.442Z,57423.81
2023-06-07T02:00:33.979Z,57513.38
2023-06-07T02:03:09.164Z,58003.06
2023-06-07T02:05:41.049Z,58116.53
2023-06-07T02:08:15.239Z,57875.66
2023-06-07T02:10:47.294Z,58106.59
2023-06-07T02:13:17.435Z,58257.88
2023-06-07T02:15:47.291Z,58393.25
2023-06-07T02:18:20.502Z,58809.41
2023-06-07T02:20:49.180Z,58859.19
2023-06-07T02:23:17.614Z,59361.00
2023-06-07T02:25:47.352Z,59126.00
2023-06-07T02:28:18.910Z,59008.53
2023-06-07T02:30:47.494Z,58980.63
2023-06-07T02:33:15.933Z,59382.91
2023-06-07T02:35:46.830Z,59271.38
2023-06-07T02:38:15.495Z,59623.88
2023-06-07T02:40:44.295Z,59285.31
2023-06-07T02:43:15.347Z,59500.41
2023-06-07T02:45:43.872Z,59753.34
2023-06-07T02:48:14.113Z,59715.50
2023-06-07T02:50:42.909Z,60105.91
2023-06-07T02:53:11.412Z,60026.22
2023-06-07T02:55:39.881Z,60317.06
2023-06-07T02:58:08.420Z,60396.72
2023-06-07T03:00:40.864Z,60209.47
2023-06-07T03:03:13.619Z,60135.78
2023-06-07T03:05:49.411Z,60213.47
2023-06-07T03:08:19.003Z,60731.44
2023-06-07T03:10:47.635Z,60426.63
2023-06-07T03:13:23.439Z,60753.34
2023-06-07T03:15:53.520Z,60637.78
2023-06-07T03:18:22.428Z,60635.78
2023-06-07T03:20:57.263Z,60486.38
2023-06-07T03:23:26.961Z,60512.28
2023-06-07T03:25:57.769Z,60576.03
2023-06-07T03:28:30.551Z,60321.03
2023-06-07T03:31:00.818Z,60607.91
2023-06-07T03:33:39.526Z,60719.47
2023-06-07T03:36:08.916Z,60603.91
2023-06-07T03:38:39.655Z,60436.56
2023-06-07T03:41:08.198Z,60333.00
2023-06-07T03:43:41.017Z,60237.38
2023-06-07T03:46:11.304Z,60101.91
2023-06-07T03:48:40.134Z,60201.50
2023-06-07T03:51:09.969Z,60074.03
2023-06-07T03:53:39.054Z,59775.25
2023-06-07T03:56:08.114Z,59566.13
2023-06-07T03:58:38.853Z,59500.41
2023-06-07T04:01:17.630Z,59488.47
2023-06-07T04:03:48.065Z,59255.44
2023-06-07T04:06:17.411Z,59173.81
2023-06-07T04:08:46.838Z,58910.94
2023-06-07T04:11:15.584Z,58948.78
2023-06-07T04:13:45.404Z,58958.75
2023-06-07T04:16:14.851Z,58809.41
2023-06-07T04:18:48.075Z,58791.47
2023-06-07T04:21:17.157Z,58496.78
2023-06-07T04:23:47.921Z,58460.97
2023-06-07T04:26:23.198Z,58393.25
2023-06-07T04:28:52.661Z,58253.91
2023-06-07T04:31:30.830Z,58281.78
2023-06-07T04:34:03.692Z,58311.63
2023-06-07T04:36:38.681Z,57871.69
2023-06-07T04:39:12.495Z,57917.47
2023-06-07T04:41:46.431Z,57811.97
2023-06-07T04:44:30.250Z,57740.31
2023-06-07T04:47:13.103Z,57489.50
2023-06-07T04:49:44.081Z,57204.88
2023-06-07T04:52:13.670Z,57157.13
2023-06-07T04:54:48.497Z,56934.22
2023-06-07T04:57:19.696Z,57039.69
2023-06-07T04:59:50.674Z,56779.00
2023-06-07T05:02:24.571Z,56597.91
2023-06-07T05:04:58.797Z,56611.84
2023-06-07T05:07:33.523Z,56410.88
2023-06-07T05:10:04.070Z,56327.31
2023-06-07T05:12:32.969Z,56152.22
2023-06-07T05:15:01.919Z,55999.03
2023-06-07T05:17:31.041Z,55965.19
2023-06-07T05:20:01.222Z,56026.88
2023-06-07T05:22:31.146Z,55885.63
2023-06-07T05:24:59.985Z,55819.97
2023-06-07T05:27:28.446Z,55774.22
2023-06-07T05:29:56.949Z,55702.59
2023-06-07T05:32:25.644Z,55630.97
2023-06-07T05:34:54.218Z,55666.78
2023-06-07T05:37:25.462Z,55521.56
2023-06-07T05:39:54.049Z,55507.63
2023-06-07T05:42:22.829Z,55410.16
2023-06-07T05:44:52.004Z,55320.66
2023-06-07T05:47:22.043Z,55260.97
2023-06-07T05:49:50.592Z,55243.09
2023-06-07T05:52:20.112Z,55181.41
2023-06-07T05:54:55.656Z,55125.72
2023-06-07T05:57:24.672Z,55113.78
2023-06-07T05:59:53.161Z,55042.19
2023-06-07T06:02:22.157Z,54978.53
2023-06-07T06:04:53.767Z,54958.66
2023-06-07T06:07:22.481Z,54948.72
2023-06-07T06:09:52.548Z,54954.69
2023-06-07T06:12:20.956Z,54998.44
2023-06-07T06:14:49.472Z,54891.03
2023-06-07T06:17:18.001Z,54932.78
2023-06-07T06:19:46.569Z,54924.84
2023-06-07T06:22:17.604Z,54891.03
2023-06-07T06:24:46.941Z,54839.31
2023-06-07T06:27:17.135Z,54823.41
2023-06-07T06:29:45.653Z,54767.72
2023-06-07T06:32:14.411Z,54783.63
2023-06-07T06:34:43.148Z,54815.47
2023-06-07T06:37:11.584Z,54658.34
2023-06-07T06:39:40.064Z,54662.31
2023-06-07T06:42:09.201Z,54519.13
2023-06-07T06:44:59.378Z,54544.97
2023-06-07T06:47:28.224Z,54533.06
2023-06-07T06:49:56.769Z,54445.56
2023-06-07T06:52:27.317Z,54449.53
2023-06-07T06:54:56.030Z,54314.31
2023-06-07T06:57:24.710Z,54314.31
2023-06-07T06:59:53.403Z,54232.78
2023-06-07T07:02:23.656Z,54230.78
2023-06-07T07:04:52.366Z,54278.50
2023-06-07T07:07:20.968Z,54191.03
2023-06-07T07:09:50.549Z,54135.34
2023-06-07T07:12:20.415Z,54085.63
2023-06-07T07:14:49.027Z,54115.47
2023-06-07T07:17:18.342Z,54075.69
2023-06-07T07:19:50.729Z,54024.00
2023-06-07T07:22:19.188Z,54043.88
2023-06-07T07:24:47.632Z,54004.09
2023-06-07T07:27:17.537Z,54004.09
2023-06-07T07:29:46.096Z,53972.28
2023-06-07T07:32:14.899Z,53988.19
2023-06-07T07:34:43.442Z,53936.50
2023-06-07T07:37:14.379Z,53930.53
2023-06-07T07:39:45.950Z,53888.78
2023-06-07T07:42:14.811Z,53868.91
2023-06-07T07:44:43.289Z,53807.25
2023-06-07T07:47:13.256Z,53801.31
2023-06-07T07:49:41.817Z,53779.44
2023-06-07T07:52:10.415Z,53769.50
2023-06-07T07:54:40.521Z,53727.75
2023-06-07T07:57:09.043Z,53735.69
2023-06-07T07:59:37.523Z,53741.66
2023-06-07T08:02:06.817Z,53731.72
2023-06-07T08:04:35.425Z,53737.69
2023-06-07T08:07:03.953Z,53682.00
2023-06-07T08:09:32.613Z,53717.78
2023-06-07T08:12:02.531Z,53721.78
2023-06-07T08:14:31.311Z,53719.78
2023-06-07T08:16:59.746Z,53721.78
2023-06-07T08:19:28.717Z,53660.13
2023-06-07T08:21:57.198Z,53682.00
2023-06-07T08:24:25.829Z,53672.06
2023-06-07T08:26:54.420Z,53666.09
2023-06-07T08:29:24.461Z,53656.16
2023-06-07T08:31:53.583Z,53682.00
2023-06-07T08:34:29.012Z,53693.94
2023-06-07T08:36:59.600Z,53686.00
2023-06-07T08:39:28.098Z,53709.84
2023-06-07T08:41:58.075Z,53701.88
2023-06-07T08:44:28.122Z,53701.88
2023-06-07T08:46:58.787Z,53703.88
2023-06-07T08:49:28.023Z,53680.03
2023-06-07T08:52:14.738Z,53703.88
2023-06-07T08:54:48.165Z,53719.78
2023-06-07T08:57:18.045Z,53721.78
2023-06-07T08:59:49.697Z,53717.78
2023-06-07T09:02:21.062Z,53749.59
2023-06-07T09:04:49.616Z,53749.59
2023-06-07T09:07:18.254Z,53753.59
2023-06-07T09:09:46.725Z,53749.59
2023-06-07T09:12:15.393Z,53747.63
2023-06-07T09:14:44.605Z,53789.38
2023-06-07T09:17:14.669Z,53765.50
2023-06-07T09:19:44.224Z,53847.03
2023-06-07T09:22:15.582Z,53918.59
2023-06-07T09:24:44.557Z,54045.88
2023-06-07T09:27:14.621Z,54204.94
2023-06-07T09:29:44.981Z,54445.56
2023-06-07T09:32:23.178Z,54716.00
2023-06-07T09:34:53.537Z,54765.72
2023-06-07T09:37:23.136Z,54920.88
2023-06-07T09:39:56.974Z,54831.38
2023-06-07T09:42:25.604Z,55062.09
2023-06-07T09:44:54.523Z,55284.84
2023-06-07T09:47:26.139Z,55368.41
2023-06-07T09:50:08.386Z,56343.22
2023-06-07T09:52:37.484Z,56357.16
2023-06-07T09:55:09.383Z,57628.84
2023-06-07T09:57:39.968Z,57905.53
2023-06-07T10:00:15.152Z,58472.91
2023-06-07T10:02:46.851Z,59582.06
2023-06-07T10:05:17.596Z,60494.34
2023-06-07T10:07:48.100Z,62249.91
2023-06-07T10:10:19.219Z,62903.72
2023-06-07T10:12:49.934Z,64461.06
2023-06-07T10:15:24.202Z,65165.19
2023-06-07T10:17:58.311Z,67458.09
2023-06-07T10:20:30.535Z,62052.56
2023-06-07T10:23:04.994Z,63577.63
2023-06-07T10:25:40.341Z,65500.34
2023-06-07T10:28:16.949Z,67555.91
2023-06-07T10:30:54.298Z,64696.44
2023-06-07T10:33:26.552Z,64165.91
2023-06-07T10:35:56.321Z,65071.44
2023-06-07T10:38:25.803Z,66977.03
2023-06-07T10:40:54.753Z,67496.03
2023-06-07T10:43:24.125Z,68246.72
2023-06-07T10:46:18.695Z,67681.69
2023-06-07T10:48:49.237Z,66298.47
2023-06-07T10:51:17.949Z,64279.56
2023-06-07T10:53:54.469Z,62401.38
2023-06-07T10:56:31.853Z,63577.63
2023-06-07T10:59:23.823Z,59701.56
2023-06-07T11:01:55.712Z,63687.28
2023-06-07T11:04:52.969Z,63507.84
2023-06-07T11:07:23.568Z,62186.13
2023-06-07T11:10:30.697Z,59207.66
2023-06-07T11:13:00.130Z,60008.28
2023-06-07T11:15:37.081Z,58891.03
2023-06-07T11:18:15.353Z,58988.59
2023-06-07T11:20:53.199Z,58144.41
2023-06-07T11:23:27.073Z,58449.00
2023-06-07T11:25:59.614Z,59070.25
2023-06-07T11:28:29.577Z,58259.88
2023-06-07T11:30:58.958Z,57374.06
2023-06-07T11:33:30.138Z,57334.25
2023-06-07T11:36:05.111Z,57569.13
2023-06-07T11:38:33.767Z,57332.25
2023-06-07T11:41:04.480Z,56868.56
2023-06-07T11:43:33.836Z,56339.25
2023-06-07T11:46:02.560Z,56227.81
2023-06-07T11:48:32.586Z,55909.50
2023-06-07T11:51:02.709Z,55630.97
2023-06-07T11:53:32.456Z,55551.41
2023-06-07T11:56:02.014Z,55475.81
2023-06-07T11:58:31.041Z,55024.28
2023-06-07T12:01:00.025Z,54986.50
2023-06-07T12:03:29.184Z,54982.53
2023-06-07T12:05:58.040Z,54857.22
2023-06-07T12:08:31.466Z,54541.00
2023-06-07T12:11:01.596Z,54411.75
2023-06-07T12:13:32.536Z,54584.75
2023-06-07T12:16:01.234Z,54445.56
2023-06-07T12:18:30.921Z,54521.13
2023-06-07T12:21:07.441Z,54457.47
2023-06-07T12:23:38.400Z,54479.34
2023-06-07T12:26:08.124Z,54429.66
2023-06-07T12:28:37.198Z,54453.50
2023-06-07T12:31:06.324Z,54391.84
2023-06-07T12:33:34.897Z,54447.53
2023-06-07T12:36:04.117Z,54306.34
2023-06-07T12:38:34.360Z,54256.63
2023-06-07T12:41:04.354Z,54250.69
2023-06-07T12:43:32.893Z,54294.41
2023-06-07T12:46:01.410Z,54330.22
2023-06-07T12:48:29.931Z,54521.13
2023-06-07T12:50:58.564Z,54338.16
2023-06-07T12:53:27.788Z,54280.50
2023-06-07T12:55:57.559Z,54254.66
2023-06-07T12:58:27.669Z,54147.28
2023-06-07T13:00:56.174Z,54129.38
2023-06-07T13:03:25.171Z,53968.31
2023-06-07T13:05:53.728Z,53864.94
2023-06-07T13:08:22.242Z,53644.22
2023-06-07T13:10:50.771Z,53554.78
2023-06-07T13:13:19.327Z,53461.31
2023-06-07T13:15:49.379Z,53393.75
2023-06-07T13:18:18.455Z,53367.91
2023-06-07T13:20:47.495Z,53359.94
2023-06-07T13:23:16.178Z,53314.22
2023-06-07T13:25:44.817Z,53270.47
2023-06-07T13:28:14.071Z,53252.59
2023-06-07T13:30:42.621Z,53288.38
2023-06-07T13:33:19.535Z,53234.69
2023-06-07T13:35:48.073Z,53200.91
2023-06-07T13:38:16.794Z,53274.47
2023-06-07T13:40:45.397Z,53272.47
2023-06-07T13:43:14.083Z,53202.91
2023-06-07T13:45:43.822Z,53210.84
2023-06-07T13:48:12.490Z,53151.22
2023-06-07T13:50:43.970Z,53190.97
2023-06-07T13:53:12.647Z,53212.84
2023-06-07T13:55:41.546Z,53179.03
2023-06-07T13:58:10.188Z,53204.88
2023-06-07T14:00:39.024Z,53192.94
2023-06-07T14:03:07.827Z,53161.16
2023-06-07T14:05:36.930Z,53157.19
2023-06-07T14:08:06.976Z,53232.72
2023-06-07T14:10:35.446Z,53230.72
2023-06-07T14:13:04.175Z,53149.22
2023-06-07T14:15:32.686Z,53165.13
2023-06-07T14:18:01.247Z,53187.00
2023-06-07T14:20:29.845Z,53169.09
2023-06-07T14:22:58.354Z,53151.22
2023-06-07T14:25:28.550Z,53163.13
2023-06-07T14:27:57.101Z,53127.34
2023-06-07T14:30:26.885Z,53163.13
2023-06-07T14:32:55.559Z,53145.25
2023-06-07T14:35:26.185Z,53129.34
2023-06-07T14:37:56.264Z,53188.97
2023-06-07T14:40:24.786Z,53125.38
2023-06-07T14:42:54.796Z,53165.13
2023-06-07T14:45:25.971Z,53188.97
2023-06-07T14:47:55.239Z,53210.84
2023-06-07T14:50:23.757Z,53145.25
2023-06-07T14:52:52.307Z,53141.28
2023-06-07T14:55:20.995Z,53183.00
2023-06-07T14:57:50.152Z,53171.09
2023-06-07T15:00:21.742Z,53187.00
2023-06-07T15:02:51.092Z,53188.97
2023-06-07T15:05:21.180Z,53194.94
2023-06-07T15:07:49.843Z,53183.00
2023-06-07T15:10:18.759Z,53177.06
2023-06-07T15:12:47.474Z,53171.09
2023-06-07T15:15:17.478Z,53157.19
2023-06-07T15:17:51.120Z,53192.94
2023-06-07T15:20:20.572Z,53192.94
2023-06-07T15:22:49.091Z,53169.09
2023-06-07T15:25:17.843Z,53212.84
2023-06-07T15:27:46.506Z,53185.00
2023-06-07T15:30:15.425Z,53153.19
2023-06-07T15:32:44.225Z,53185.00
2023-06-07T15:35:14.398Z,53206.88
2023-06-07T15:37:43.460Z,53192.94
2023-06-07T15:40:12.729Z,53198.91
2023-06-07T15:42:41.244Z,53173.06
2023-06-07T15:45:10.718Z,53204.88
2023-06-07T15:47:39.366Z,53200.91
2023-06-07T15:50:09.066Z,53165.13
2023-06-07T15:52:39.034Z,53145.25
2023-06-07T15:55:08.702Z,53188.97
2023-06-07T15:57:38.490Z,53185.00
2023-06-07T16:00:16.264Z,53165.13
2023-06-07T16:02:52.003Z,53202.91
2023-06-07T16:05:20.746Z,53192.94
2023-06-07T16:07:50.759Z,53192.94
2023-06-07T16:10:19.476Z,53177.06
2023-06-07T16:12:50.888Z,53169.09
2023-06-07T16:15:20.991Z,53173.06
2023-06-07T16:17:49.570Z,53173.06
2023-06-07T16:20:18.636Z,53179.03
2023-06-07T16:22:47.319Z,53171.09
2023-06-07T16:25:17.384Z,53198.91
2023-06-07T16:27:45.850Z,53179.03
2023-06-07T16:30:15.661Z,53204.88
2023-06-07T16:32:44.518Z,53204.88
2023-06-07T16:35:13.261Z,53216.81
2023-06-07T16:37:41.684Z,53192.94
2023-06-07T16:40:11.354Z,53202.91
2023-06-07T16:42:42.166Z,53161.16
2023-06-07T16:45:11.787Z,53196.94
2023-06-07T16:47:40.619Z,53185.00
2023-06-07T16:50:11.201Z,53165.13
2023-06-07T16:52:39.823Z,53147.22
2023-06-07T16:55:09.399Z,53169.09
2023-06-07T16:57:40.577Z,53147.22
2023-06-07T17:00:10.654Z,53165.13
2023-06-07T17:02:39.364Z,53187.00
2023-06-07T17:05:09.271Z,53161.16
2023-06-07T17:07:37.936Z,53185.00
2023-06-07T17:10:07.782Z,53200.91
2023-06-07T17:12:36.888Z,53202.91
2023-06-07T17:15:08.429Z,53177.06
2023-06-07T17:17:37.094Z,53159.16
2023-06-07T17:20:06.944Z,53173.06
2023-06-07T17:22:35.780Z,53161.16
2023-06-07T17:25:04.304Z,53157.19
2023-06-07T17:27:32.930Z,53159.16
2023-06-07T17:30:01.745Z,53171.09
2023-06-07T17:32:32.109Z,53198.91
2023-06-07T17:35:00.637Z,53161.16
2023-06-07T17:37:29.129Z,53181.03
2023-06-07T17:39:57.618Z,53190.97
2023-06-07T17:42:26.081Z,53165.13
2023-06-07T17:44:54.846Z,53200.91
2023-06-07T17:47:23.959Z,53151.22
2023-06-07T17:49:54.011Z,53165.13
2023-06-07T17:52:23.754Z,53175.06
2023-06-07T17:54:52.524Z,53177.06
2023-06-07T17:57:21.188Z,53198.91
2023-06-07T17:59:49.608Z,53183.00
2023-06-07T18:02:21.154Z,53159.16
2023-06-07T18:04:49.755Z,53175.06
2023-06-07T18:07:19.764Z,53188.97
2023-06-07T18:09:49.532Z,53181.03
2023-06-07T18:12:19.311Z,53171.09
2023-06-07T18:14:47.928Z,53175.06
2023-06-07T18:17:16.951Z,53208.84
2023-06-07T18:19:45.688Z,53194.94
2023-06-07T18:22:14.352Z,53224.75
2023-06-07T18:24:44.200Z,53192.94
2023-06-07T18:27:12.713Z,53248.63
2023-06-07T18:29:41.282Z,53244.63
2023-06-07T18:32:10.156Z,53254.59
2023-06-07T18:34:38.737Z,53228.75
2023-06-07T18:37:09.030Z,53226.75
2023-06-07T18:39:37.617Z,53232.72
2023-06-07T18:42:08.344Z,53250.59
2023-06-07T18:44:37.445Z,53266.50
2023-06-07T18:47:07.854Z,53292.34
2023-06-07T18:49:36.620Z,53300.31
2023-06-07T18:52:08.234Z,53270.47
2023-06-07T18:54:36.758Z,53292.34
2023-06-07T18:57:05.901Z,53328.13
2023-06-07T18:59:36.033Z,53340.06
2023-06-07T19:02:04.801Z,53359.94
2023-06-07T19:04:33.543Z,53355.97
2023-06-07T19:07:02.225Z,53449.41
2023-06-07T19:09:30.854Z,53429.53
2023-06-07T19:12:00.266Z,53457.34
2023-06-07T19:14:29.661Z,53455.38
2023-06-07T19:16:59.656Z,53503.06
2023-06-07T19:19:28.197Z,53507.06
2023-06-07T19:21:56.812Z,53511.03
2023-06-07T19:24:25.517Z,53574.66
2023-06-07T19:26:54.144Z,53600.50
2023-06-07T19:29:22.560Z,53644.22
2023-06-07T19:31:51.195Z,53674.06
2023-06-07T19:34:21.162Z,53703.88
2023-06-07T19:36:49.584Z,53819.19
2023-06-07T19:39:18.124Z,53890.78
2023-06-07T19:41:48.634Z,53976.28
2023-06-07T19:44:17.265Z,54206.94
2023-06-07T19:46:45.846Z,54385.91
2023-06-07T19:49:14.415Z,54586.75
2023-06-07T19:51:44.529Z,54759.78
2023-06-07T19:54:13.241Z,54986.50
2023-06-07T19:56:41.823Z,55155.56
2023-06-07T19:59:10.417Z,55404.19
2023-06-07T20:01:39.431Z,55585.22
2023-06-07T20:04:08.349Z,55754.31
2023-06-07T20:06:38.394Z,55925.41
2023-06-07T20:09:08.638Z,56190.03
2023-06-07T20:11:38.383Z,56580.00
2023-06-07T20:14:07.159Z,56832.72
2023-06-07T20:16:35.847Z,57067.56
2023-06-07T20:19:04.938Z,57244.69
2023-06-07T20:21:33.757Z,57441.72
2023-06-07T20:24:02.482Z,57676.59
2023-06-07T20:26:33.073Z,57915.47
2023-06-07T20:29:02.818Z,58076.72
2023-06-07T20:31:31.678Z,58265.84
2023-06-07T20:34:01.024Z,58705.84
2023-06-07T20:36:29.824Z,59189.72
2023-06-07T20:39:00.618Z,59233.53
2023-06-07T20:41:30.378Z,59825.03
2023-06-07T20:44:00.600Z,59966.47
2023-06-07T20:46:29.381Z,60163.66
2023-06-07T20:48:58.854Z,61106.00
2023-06-07T20:51:28.222Z,61727.72
2023-06-07T20:53:56.746Z,63346.31
2023-06-07T20:56:25.752Z,64798.16
2023-06-07T20:58:54.420Z,66653.72
2023-06-07T21:01:24.767Z,68250.69
2023-06-07T21:03:54.013Z,70206.03
2023-06-07T21:06:23.010Z,72978.16
2023-06-07T21:08:51.805Z,75026.22
2023-06-07T21:11:20.904Z,76563.09
2023-06-07T21:13:49.639Z,77588.03
2023-06-07T21:16:19.066Z,77844.31
2023-06-07T21:18:49.033Z,77844.31
2023-06-07T21:21:17.684Z,76819.28
2023-06-07T21:23:46.351Z,77075.53
2023-06-07T21:26:14.896Z,76306.91
2023-06-07T21:28:43.424Z,76050.72
2023-06-07T21:31:12.041Z,75282.31
2023-06-07T21:33:40.643Z,73490.06
2023-06-07T21:36:10.694Z,71442.94
2023-06-07T21:38:39.196Z,68486.31
2023-06-07T21:41:07.723Z,65402.59
2023-06-07T21:43:36.403Z,63007.41
2023-06-07T21:46:05.154Z,61365.03
2023-06-07T21:48:37.131Z,59309.22
2023-06-07T21:51:05.859Z,57819.94
2023-06-07T21:53:36.082Z,56930.25
2023-06-07T21:56:04.592Z,56058.69
2023-06-07T21:58:33.117Z,55630.97
2023-06-07T22:01:01.745Z,55360.44
2023-06-07T22:03:30.278Z,55010.38
2023-06-07T22:05:58.760Z,54861.19
2023-06-07T22:08:27.242Z,54727.94
2023-06-07T22:10:58.622Z,54658.34
2023-06-07T22:13:27.295Z,54552.94
2023-06-07T22:16:01.797Z,54473.41
2023-06-07T22:18:32.673Z,54427.66
2023-06-07T22:21:01.846Z,54397.81
2023-06-07T22:23:30.451Z,54368.00
2023-06-07T22:26:00.973Z,54312.31
2023-06-07T22:28:33.857Z,54290.44
2023-06-07T22:31:04.047Z,54262.59
2023-06-07T22:33:33.738Z,54256.63
2023-06-07T22:36:05.001Z,54274.53
2023-06-07T22:38:33.425Z,54228.81
2023-06-07T22:41:03.414Z,54248.69
2023-06-07T22:43:32.212Z,54248.69
2023-06-07T22:46:00.675Z,54234.75
2023-06-07T22:48:30.121Z,54250.69
2023-06-07T22:51:02.150Z,54262.59
2023-06-07T22:53:30.732Z,54268.56
2023-06-07T22:55:59.142Z,54286.47
2023-06-07T22:58:29.216Z,54256.63
2023-06-07T23:00:58.026Z,54274.53
2023-06-07T23:03:27.114Z,54276.53
2023-06-07T23:05:55.818Z,54240.72
2023-06-07T23:08:24.387Z,54210.91
2023-06-07T23:10:53.955Z,54260.63
2023-06-07T23:13:23.252Z,54234.75
2023-06-07T23:15:55.031Z,54248.69
2023-06-07T23:18:24.588Z,54244.72
2023-06-07T23:20:54.093Z,54286.47
2023-06-07T23:23:22.698Z,54246.69
2023-06-07T23:25:51.910Z,54270.56
2023-06-07T23:28:20.730Z,54266.59
2023-06-07T23:30:49.081Z,54230.78
2023-06-07T23:33:19.474Z,54234.75
2023-06-07T23:35:47.768Z,54282.50
2023-06-07T23:38:16.124Z,54282.50
2023-06-07T23:40:44.602Z,54282.50
2023-06-07T23:43:13.269Z,54282.50
2023-06-07T23:45:42.647Z,54294.41
2023-06-07T23:48:11.915Z,54242.72
2023-06-07T23:50:42.112Z,54270.56
2023-06-07T23:53:11.138Z,54252.66
2023-06-07T23:55:43.915Z,54278.50
2023-06-07T23:58:13.073Z,54244.72
